Alcalde, New Mexico
Current Conditions -  °F | °C
As of 12:15 PM on Friday 24 Oct 2014 (Local Time) from KLAM Reporting Station
Clear Clear  
Wind Chill: 63°   Ceiling: Unl
Heat Index: 63°   Visibility: 10mi
Dew Point: 32°   Wind: 3mph
Humidity: 31%   Direction: 60°ENE
Pressure: 30.42"   Gusts: NA
Location:  36.09°N, 106.06°W
Report Text: KLAM 241815Z AUTO 06003KT 10SM CLR 17/00 A3042 RMK AO2 T01741001
Loading
Personal Weather Stations






























Interactive Weather Map
Tropical Storm Tracking
New forecast layout! Learn more

10-Day Weather Forecast

Advertisements
Track Severe Weather on mobile